This is the latest recevied weather packets stored in our database for station/object NK0Z-13. If no packets are shown the sender has not sent any weather packets the latest 10 day(s).
| Time | Temp. | Humidity | Pressure | Rain* | Wind** | Luminosity | Snow |
|---|---|---|---|---|---|---|---|
| 1777479592 | 10.56° C | 73% | 1024.1 hPa | 0 mm | - | 446 W/m² | - |
| 1777478986 | 10.56° C | 72% | 1024.1 hPa | 0 mm | - | 423 W/m² | - |
| 1777478385 | 10.56° C | 74% | 1023.9 hPa | 0 mm | - | 441 W/m² | - |
| 1777477784 | 10° C | 75% | 1024.5 hPa | 0 mm | - | 436 W/m² | - |
| 1777477183 | 10° C | 75% | 1024.2 hPa | 0 mm | - | 371 W/m² | - |
| 1777476577 | 9.44° C | 77% | 1024.2 hPa | 0 mm | - | 298 W/m² | - |
| 1777475974 | 9.44° C | 77% | 1024.3 hPa | 0 mm | - | 303 W/m² | - |
| 1777475373 | 9.44° C | 77% | 1024.2 hPa | 0 mm | - | 301 W/m² | - |
| 1777474771 | 10° C | 77% | 1024.2 hPa | 0 mm | - | 513 W/m² | - |
| 1777474168 | 9.44° C | 78% | 1024.1 hPa | 0 mm | - | 437 W/m² | - |
| 1777473569 | 8.89° C | 79% | 1024 hPa | 0 mm | - | 388 W/m² | - |
| 1777472966 | 8.89° C | 81% | 1024.1 hPa | 0 mm | - | 350 W/m² | - |
| 1777472365 | 8.33° C | 83% | 1023.9 hPa | 0 mm | - | 323 W/m² | - |
| 1777471764 | 7.78° C | 85% | 1024.1 hPa | 0 mm | - | 348 W/m² | - |
| 1777471164 | 7.78° C | 86% | 1024.3 hPa | 0 mm | - | 300 W/m² | - |
| 1777470563 | 7.22° C | 88% | 1024.1 hPa | 0 mm | - | 277 W/m² | - |
| 1777469961 | 6.67° C | 91% | 1024.1 hPa | 0 mm | - | 223 W/m² | - |
| 1777469359 | 6.11° C | 93% | 1024.1 hPa | 0 mm | - | 217 W/m² | - |
| 1777468756 | 5.56° C | 96% | 1024.1 hPa | 0 mm | - | 185 W/m² | - |
| 1777468155 | 6.11° C | 97% | 1024.3 hPa | 0 mm | - | 171 W/m² | - |
| 1777467552 | 5° C | 98% | 1024.1 hPa | 0 mm | - | 124 W/m² | - |
| 1777466949 | 4.44° C | 98% | 1024 hPa | 0 mm | - | 69 W/m² | - |
| 1777466349 | 3.89° C | 98% | 1023.8 hPa | 0 mm | - | 60 W/m² | - |
| 1777465748 | 3.89° C | 98% | 1023.8 hPa | 0 mm | - | 43 W/m² | - |
| 1777465143 | 3.89° C | 98% | 1023.4 hPa | 0 mm | - | 41 W/m² | - |
* Rain latest hour (hover to see other rain measurements)
** Current wind speed in m/s (hover to see current wind gust speed)